sensor_id;sensor_type;location;lat;lon;timestamp;P1;durP1;ratioP1;P2;durP2;ratioP2
41059;SDS011;26811;53.160;8.202;2023-04-23T00:04:37;60.88;;;29.42;;
41059;SDS011;26811;53.160;8.202;2023-04-23T00:09:38;58.05;;;28.15;;
41059;SDS011;26811;53.160;8.202;2023-04-23T00:14:40;61.38;;;28.73;;
41059;SDS011;26811;53.160;8.202;2023-04-23T00:19:40;62.35;;;28.60;;
41059;SDS011;26811;53.160;8.202;2023-04-23T00:24:41;57.92;;;28.70;;
41059;SDS011;26811;53.160;8.202;2023-04-23T00:29:42;58.58;;;27.98;;
41059;SDS011;26811;53.160;8.202;2023-04-23T00:34:43;54.17;;;27.13;;
41059;SDS011;26811;53.160;8.202;2023-04-23T00:39:47;56.42;;;27.30;;
41059;SDS011;26811;53.160;8.202;2023-04-23T00:44:48;59.70;;;27.98;;
41059;SDS011;26811;53.160;8.202;2023-04-23T00:49:50;53.22;;;27.35;;
41059;SDS011;26811;53.160;8.202;2023-04-23T00:54:54;55.50;;;24.67;;
41059;SDS011;26811;53.160;8.202;2023-04-23T00:59:55;52.15;;;26.25;;
41059;SDS011;26811;53.160;8.202;2023-04-23T01:04:57;49.60;;;25.05;;
41059;SDS011;26811;53.160;8.202;2023-04-23T01:09:58;49.65;;;23.27;;
41059;SDS011;26811;53.160;8.202;2023-04-23T01:14:59;46.20;;;23.40;;
41059;SDS011;26811;53.160;8.202;2023-04-23T01:20:01;52.40;;;24.23;;
41059;SDS011;26811;53.160;8.202;2023-04-23T01:25:02;46.22;;;22.15;;
41059;SDS011;26811;53.160;8.202;2023-04-23T01:30:03;49.92;;;23.67;;
41059;SDS011;26811;53.160;8.202;2023-04-23T01:35:05;47.35;;;22.58;;
41059;SDS011;26811;53.160;8.202;2023-04-23T01:40:06;44.95;;;22.55;;
41059;SDS011;26811;53.160;8.202;2023-04-23T01:45:07;49.95;;;23.38;;
41059;SDS011;26811;53.160;8.202;2023-04-23T01:50:08;52.88;;;22.95;;
41059;SDS011;26811;53.160;8.202;2023-04-23T01:55:09;43.67;;;22.98;;
41059;SDS011;26811;53.160;8.202;2023-04-23T02:00:10;41.10;;;20.85;;
41059;SDS011;26811;53.160;8.202;2023-04-23T02:05:16;47.10;;;21.50;;
41059;SDS011;26811;53.160;8.202;2023-04-23T02:10:17;44.65;;;21.77;;
41059;SDS011;26811;53.160;8.202;2023-04-23T02:15:19;44.25;;;22.65;;
41059;SDS011;26811;53.160;8.202;2023-04-23T02:20:20;44.53;;;21.75;;
41059;SDS011;26811;53.160;8.202;2023-04-23T02:25:21;52.00;;;22.80;;
41059;SDS011;26811;53.160;8.202;2023-04-23T02:30:22;50.67;;;22.20;;
41059;SDS011;26811;53.160;8.202;2023-04-23T02:35:23;45.05;;;21.80;;
41059;SDS011;26811;53.160;8.202;2023-04-23T02:40:24;47.45;;;22.90;;
41059;SDS011;26811;53.160;8.202;2023-04-23T02:45:25;48.83;;;22.83;;
41059;SDS011;26811;53.160;8.202;2023-04-23T02:50:25;49.10;;;22.75;;
41059;SDS011;26811;53.160;8.202;2023-04-23T02:55:26;47.90;;;22.77;;
41059;SDS011;26811;53.160;8.202;2023-04-23T03:00:30;50.00;;;23.25;;
41059;SDS011;26811;53.160;8.202;2023-04-23T03:05:31;49.45;;;23.02;;
41059;SDS011;26811;53.160;8.202;2023-04-23T03:10:32;46.97;;;23.00;;
41059;SDS011;26811;53.160;8.202;2023-04-23T03:15:32;51.88;;;23.45;;
41059;SDS011;26811;53.160;8.202;2023-04-23T03:20:33;52.33;;;24.30;;
41059;SDS011;26811;53.160;8.202;2023-04-23T03:25:36;53.08;;;23.73;;
41059;SDS011;26811;53.160;8.202;2023-04-23T03:30:37;52.15;;;24.17;;
41059;SDS011;26811;53.160;8.202;2023-04-23T03:35:38;59.70;;;26.80;;
41059;SDS011;26811;53.160;8.202;2023-04-23T03:40:39;55.13;;;26.88;;
41059;SDS011;26811;53.160;8.202;2023-04-23T03:45:39;54.85;;;24.77;;
41059;SDS011;26811;53.160;8.202;2023-04-23T03:50:40;57.92;;;26.60;;
41059;SDS011;26811;53.160;8.202;2023-04-23T03:55:40;55.10;;;25.20;;
41059;SDS011;26811;53.160;8.202;2023-04-23T04:00:41;58.60;;;27.65;;
41059;SDS011;26811;53.160;8.202;2023-04-23T04:05:41;63.70;;;28.30;;
41059;SDS011;26811;53.160;8.202;2023-04-23T04:10:43;58.72;;;26.75;;
41059;SDS011;26811;53.160;8.202;2023-04-23T04:15:43;65.95;;;28.98;;
41059;SDS011;26811;53.160;8.202;2023-04-23T04:20:44;58.22;;;27.65;;
41059;SDS011;26811;53.160;8.202;2023-04-23T04:25:44;64.75;;;28.48;;
41059;SDS011;26811;53.160;8.202;2023-04-23T04:30:45;64.40;;;28.60;;
41059;SDS011;26811;53.160;8.202;2023-04-23T04:35:48;63.97;;;28.50;;
41059;SDS011;26811;53.160;8.202;2023-04-23T04:40:49;63.13;;;27.73;;
41059;SDS011;26811;53.160;8.202;2023-04-23T04:45:50;71.85;;;28.60;;
41059;SDS011;26811;53.160;8.202;2023-04-23T04:50:51;61.67;;;27.98;;
41059;SDS011;26811;53.160;8.202;2023-04-23T04:55:52;64.63;;;28.88;;
41059;SDS011;26811;53.160;8.202;2023-04-23T05:00:52;62.30;;;29.02;;
41059;SDS011;26811;53.160;8.202;2023-04-23T05:05:53;61.25;;;29.92;;
41059;SDS011;26811;53.160;8.202;2023-04-23T05:10:55;61.33;;;28.33;;
41059;SDS011;26811;53.160;8.202;2023-04-23T05:15:55;63.10;;;28.60;;
41059;SDS011;26811;53.160;8.202;2023-04-23T05:20:56;56.95;;;27.88;;
41059;SDS011;26811;53.160;8.202;2023-04-23T05:25:57;59.13;;;28.23;;
41059;SDS011;26811;53.160;8.202;2023-04-23T05:30:57;60.85;;;29.17;;
41059;SDS011;26811;53.160;8.202;2023-04-23T05:35:58;62.28;;;29.30;;
41059;SDS011;26811;53.160;8.202;2023-04-23T05:40:58;63.70;;;29.52;;
41059;SDS011;26811;53.160;8.202;2023-04-23T05:45:59;61.70;;;29.65;;
41059;SDS011;26811;53.160;8.202;2023-04-23T05:51:00;58.90;;;27.85;;
41059;SDS011;26811;53.160;8.202;2023-04-23T05:56:00;58.55;;;28.75;;
41059;SDS011;26811;53.160;8.202;2023-04-23T06:01:01;59.90;;;29.95;;
41059;SDS011;26811;53.160;8.202;2023-04-23T06:06:01;56.85;;;27.83;;
41059;SDS011;26811;53.160;8.202;2023-04-23T06:11:02;62.08;;;30.02;;
41059;SDS011;26811;53.160;8.202;2023-04-23T06:16:03;58.72;;;29.70;;
41059;SDS011;26811;53.160;8.202;2023-04-23T06:21:04;64.63;;;30.60;;
41059;SDS011;26811;53.160;8.202;2023-04-23T06:26:05;63.88;;;31.95;;
41059;SDS011;26811;53.160;8.202;2023-04-23T06:31:05;68.82;;;33.97;;
41059;SDS011;26811;53.160;8.202;2023-04-23T06:36:07;75.00;;;34.58;;
41059;SDS011;26811;53.160;8.202;2023-04-23T06:41:10;67.47;;;34.45;;
41059;SDS011;26811;53.160;8.202;2023-04-23T06:46:11;63.55;;;32.30;;
41059;SDS011;26811;53.160;8.202;2023-04-23T06:51:13;61.65;;;32.95;;
41059;SDS011;26811;53.160;8.202;2023-04-23T06:56:13;60.05;;;31.52;;
41059;SDS011;26811;53.160;8.202;2023-04-23T07:01:14;65.60;;;35.78;;
41059;SDS011;26811;53.160;8.202;2023-04-23T07:06:15;69.03;;;36.60;;
41059;SDS011;26811;53.160;8.202;2023-04-23T07:11:15;77.22;;;41.60;;
41059;SDS011;26811;53.160;8.202;2023-04-23T07:16:16;83.93;;;43.10;;
41059;SDS011;26811;53.160;8.202;2023-04-23T07:21:16;85.97;;;45.85;;
41059;SDS011;26811;53.160;8.202;2023-04-23T07:26:17;75.50;;;43.47;;
41059;SDS011;26811;53.160;8.202;2023-04-23T07:31:17;75.05;;;42.72;;
41059;SDS011;26811;53.160;8.202;2023-04-23T07:36:19;83.30;;;45.20;;
41059;SDS011;26811;53.160;8.202;2023-04-23T07:41:20;82.75;;;45.08;;
41059;SDS011;26811;53.160;8.202;2023-04-23T07:46:20;84.85;;;45.92;;
41059;SDS011;26811;53.160;8.202;2023-04-23T07:51:21;83.40;;;44.88;;
41059;SDS011;26811;53.160;8.202;2023-04-23T07:56:25;79.30;;;42.90;;
41059;SDS011;26811;53.160;8.202;2023-04-23T08:01:25;72.75;;;40.28;;
41059;SDS011;26811;53.160;8.202;2023-04-23T08:06:26;68.97;;;37.72;;
41059;SDS011;26811;53.160;8.202;2023-04-23T08:11:28;59.08;;;34.38;;
41059;SDS011;26811;53.160;8.202;2023-04-23T08:16:29;55.95;;;32.63;;
41059;SDS011;26811;53.160;8.202;2023-04-23T08:21:30;51.47;;;29.38;;
41059;SDS011;26811;53.160;8.202;2023-04-23T08:26:31;51.72;;;29.50;;
41059;SDS011;26811;53.160;8.202;2023-04-23T08:31:32;46.42;;;27.35;;
41059;SDS011;26811;53.160;8.202;2023-04-23T08:36:33;38.63;;;25.65;;
41059;SDS011;26811;53.160;8.202;2023-04-23T08:41:34;39.47;;;23.55;;
41059;SDS011;26811;53.160;8.202;2023-04-23T08:46:42;34.85;;;21.58;;
41059;SDS011;26811;53.160;8.202;2023-04-23T08:51:53;31.83;;;20.70;;
41059;SDS011;26811;53.160;8.202;2023-04-23T08:56:57;30.13;;;19.75;;
41059;SDS011;26811;53.160;8.202;2023-04-23T09:01:58;29.50;;;18.63;;
41059;SDS011;26811;53.160;8.202;2023-04-23T09:12:00;27.95;;;17.90;;
41059;SDS011;26811;53.160;8.202;2023-04-23T09:17:01;28.23;;;18.33;;
41059;SDS011;26811;53.160;8.202;2023-04-23T09:22:02;26.05;;;17.45;;
41059;SDS011;26811;53.160;8.202;2023-04-23T09:27:03;26.02;;;17.15;;
41059;SDS011;26811;53.160;8.202;2023-04-23T09:32:07;26.02;;;15.88;;
41059;SDS011;26811;53.160;8.202;2023-04-23T09:37:09;20.77;;;14.98;;
41059;SDS011;26811;53.160;8.202;2023-04-23T09:42:10;21.77;;;15.53;;
41059;SDS011;26811;53.160;8.202;2023-04-23T09:47:12;23.40;;;15.50;;
41059;SDS011;26811;53.160;8.202;2023-04-23T09:52:14;21.45;;;15.30;;
41059;SDS011;26811;53.160;8.202;2023-04-23T09:57:15;22.52;;;15.63;;
41059;SDS011;26811;53.160;8.202;2023-04-23T10:02:16;23.75;;;16.50;;
41059;SDS011;26811;53.160;8.202;2023-04-23T10:07:17;26.05;;;16.48;;
41059;SDS011;26811;53.160;8.202;2023-04-23T10:12:19;25.67;;;17.65;;
41059;SDS011;26811;53.160;8.202;2023-04-23T10:17:20;31.17;;;18.13;;
41059;SDS011;26811;53.160;8.202;2023-04-23T10:22:20;30.20;;;17.95;;
41059;SDS011;26811;53.160;8.202;2023-04-23T10:27:28;31.40;;;17.95;;
41059;SDS011;26811;53.160;8.202;2023-04-23T10:32:31;32.47;;;19.30;;
41059;SDS011;26811;53.160;8.202;2023-04-23T10:37:33;32.55;;;19.90;;
41059;SDS011;26811;53.160;8.202;2023-04-23T10:42:34;30.70;;;19.70;;
41059;SDS011;26811;53.160;8.202;2023-04-23T10:47:35;31.92;;;20.38;;
41059;SDS011;26811;53.160;8.202;2023-04-23T10:52:36;30.13;;;19.45;;
41059;SDS011;26811;53.160;8.202;2023-04-23T10:57:53;29.38;;;19.05;;
41059;SDS011;26811;53.160;8.202;2023-04-23T11:02:56;32.60;;;20.65;;
41059;SDS011;26811;53.160;8.202;2023-04-23T11:13:18;28.00;;;17.88;;
41059;SDS011;26811;53.160;8.202;2023-04-23T11:18:21;33.70;;;20.27;;
41059;SDS011;26811;53.160;8.202;2023-04-23T11:23:29;31.58;;;19.15;;
41059;SDS011;26811;53.160;8.202;2023-04-23T11:28:32;26.13;;;17.27;;
41059;SDS011;26811;53.160;8.202;2023-04-23T11:33:36;20.52;;;13.82;;
41059;SDS011;26811;53.160;8.202;2023-04-23T11:38:37;21.25;;;14.07;;
41059;SDS011;26811;53.160;8.202;2023-04-23T11:43:38;19.92;;;13.80;;
41059;SDS011;26811;53.160;8.202;2023-04-23T11:48:38;22.45;;;13.70;;
41059;SDS011;26811;53.160;8.202;2023-04-23T11:53:45;16.80;;;12.32;;
41059;SDS011;26811;53.160;8.202;2023-04-23T11:58:47;20.70;;;12.15;;
41059;SDS011;26811;53.160;8.202;2023-04-23T12:03:47;16.25;;;11.63;;
41059;SDS011;26811;53.160;8.202;2023-04-23T12:08:48;21.58;;;11.20;;
41059;SDS011;26811;53.160;8.202;2023-04-23T12:13:48;16.17;;;11.63;;
41059;SDS011;26811;53.160;8.202;2023-04-23T12:18:52;14.50;;;9.30;;
41059;SDS011;26811;53.160;8.202;2023-04-23T12:23:53;11.05;;;8.38;;
41059;SDS011;26811;53.160;8.202;2023-04-23T12:28:54;17.60;;;9.55;;
41059;SDS011;26811;53.160;8.202;2023-04-23T12:34:01;12.52;;;9.13;;
41059;SDS011;26811;53.160;8.202;2023-04-23T12:39:22;13.60;;;8.15;;
41059;SDS011;26811;53.160;8.202;2023-04-23T12:44:34;9.25;;;7.10;;
41059;SDS011;26811;53.160;8.202;2023-04-23T12:49:37;10.75;;;7.30;;
41059;SDS011;26811;53.160;8.202;2023-04-23T12:54:39;11.00;;;7.40;;
41059;SDS011;26811;53.160;8.202;2023-04-23T12:59:40;9.68;;;7.00;;
41059;SDS011;26811;53.160;8.202;2023-04-23T13:04:40;9.82;;;7.32;;
41059;SDS011;26811;53.160;8.202;2023-04-23T13:09:41;7.97;;;5.28;;
41059;SDS011;26811;53.160;8.202;2023-04-23T13:14:41;7.28;;;4.60;;
41059;SDS011;26811;53.160;8.202;2023-04-23T13:19:42;6.45;;;4.85;;
41059;SDS011;26811;53.160;8.202;2023-04-23T13:24:43;7.40;;;5.00;;
41059;SDS011;26811;53.160;8.202;2023-04-23T13:29:44;8.82;;;5.28;;
41059;SDS011;26811;53.160;8.202;2023-04-23T13:34:44;6.57;;;4.63;;
41059;SDS011;26811;53.160;8.202;2023-04-23T13:39:45;5.43;;;3.67;;
41059;SDS011;26811;53.160;8.202;2023-04-23T13:44:47;7.37;;;3.63;;
41059;SDS011;26811;53.160;8.202;2023-04-23T13:49:47;6.90;;;4.05;;
41059;SDS011;26811;53.160;8.202;2023-04-23T13:54:48;6.60;;;3.85;;
41059;SDS011;26811;53.160;8.202;2023-04-23T13:59:49;4.73;;;3.37;;
41059;SDS011;26811;53.160;8.202;2023-04-23T14:04:50;6.47;;;3.70;;
41059;SDS011;26811;53.160;8.202;2023-04-23T14:09:50;5.90;;;4.30;;
41059;SDS011;26811;53.160;8.202;2023-04-23T14:14:51;7.22;;;4.18;;
41059;SDS011;26811;53.160;8.202;2023-04-23T14:19:52;7.70;;;4.13;;
41059;SDS011;26811;53.160;8.202;2023-04-23T14:24:56;6.85;;;4.00;;
41059;SDS011;26811;53.160;8.202;2023-04-23T14:30:02;5.55;;;3.90;;
41059;SDS011;26811;53.160;8.202;2023-04-23T14:35:06;8.25;;;3.95;;
41059;SDS011;26811;53.160;8.202;2023-04-23T14:40:07;8.55;;;4.35;;
41059;SDS011;26811;53.160;8.202;2023-04-23T14:45:09;5.47;;;3.47;;
41059;SDS011;26811;53.160;8.202;2023-04-23T14:50:09;5.82;;;3.63;;
41059;SDS011;26811;53.160;8.202;2023-04-23T14:55:10;6.85;;;2.97;;
41059;SDS011;26811;53.160;8.202;2023-04-23T15:00:11;6.78;;;2.10;;
41059;SDS011;26811;53.160;8.202;2023-04-23T15:05:12;4.90;;;2.47;;
41059;SDS011;26811;53.160;8.202;2023-04-23T15:10:15;5.57;;;2.28;;
41059;SDS011;26811;53.160;8.202;2023-04-23T15:15:20;3.72;;;1.95;;
41059;SDS011;26811;53.160;8.202;2023-04-23T15:20:26;2.85;;;1.90;;
41059;SDS011;26811;53.160;8.202;2023-04-23T15:25:28;5.70;;;2.38;;
41059;SDS011;26811;53.160;8.202;2023-04-23T15:30:29;5.10;;;2.15;;
41059;SDS011;26811;53.160;8.202;2023-04-23T15:35:30;4.57;;;2.67;;
41059;SDS011;26811;53.160;8.202;2023-04-23T15:40:30;3.45;;;2.58;;
41059;SDS011;26811;53.160;8.202;2023-04-23T15:45:32;5.83;;;2.40;;
41059;SDS011;26811;53.160;8.202;2023-04-23T15:50:32;5.10;;;2.35;;
41059;SDS011;26811;53.160;8.202;2023-04-23T15:55:34;3.25;;;1.98;;
41059;SDS011;26811;53.160;8.202;2023-04-23T16:00:34;7.80;;;1.88;;
41059;SDS011;26811;53.160;8.202;2023-04-23T16:05:35;7.07;;;2.20;;
41059;SDS011;26811;53.160;8.202;2023-04-23T16:10:36;4.30;;;1.70;;
41059;SDS011;26811;53.160;8.202;2023-04-23T16:15:37;6.03;;;2.40;;
41059;SDS011;26811;53.160;8.202;2023-04-23T16:20:37;4.80;;;2.15;;
41059;SDS011;26811;53.160;8.202;2023-04-23T16:25:38;6.90;;;2.10;;
41059;SDS011;26811;53.160;8.202;2023-04-23T16:30:38;5.65;;;2.35;;
41059;SDS011;26811;53.160;8.202;2023-04-23T16:35:39;4.90;;;2.35;;
41059;SDS011;26811;53.160;8.202;2023-04-23T16:40:40;8.55;;;2.53;;
41059;SDS011;26811;53.160;8.202;2023-04-23T16:45:41;4.55;;;2.78;;
41059;SDS011;26811;53.160;8.202;2023-04-23T16:50:41;7.40;;;3.15;;
41059;SDS011;26811;53.160;8.202;2023-04-23T16:55:43;5.28;;;3.22;;
41059;SDS011;26811;53.160;8.202;2023-04-23T17:00:43;6.13;;;5.00;;
41059;SDS011;26811;53.160;8.202;2023-04-23T17:05:47;4.32;;;3.72;;
41059;SDS011;26811;53.160;8.202;2023-04-23T17:10:54;6.65;;;3.50;;
41059;SDS011;26811;53.160;8.202;2023-04-23T17:15:54;5.38;;;3.03;;
41059;SDS011;26811;53.160;8.202;2023-04-23T17:20:55;5.82;;;2.95;;
41059;SDS011;26811;53.160;8.202;2023-04-23T17:25:55;5.18;;;2.50;;
41059;SDS011;26811;53.160;8.202;2023-04-23T17:30:56;2.38;;;2.17;;
41059;SDS011;26811;53.160;8.202;2023-04-23T17:35:57;3.10;;;2.30;;
41059;SDS011;26811;53.160;8.202;2023-04-23T17:40:57;2.65;;;2.45;;
41059;SDS011;26811;53.160;8.202;2023-04-23T17:45:58;4.90;;;2.88;;
41059;SDS011;26811;53.160;8.202;2023-04-23T17:50:59;5.05;;;2.78;;
41059;SDS011;26811;53.160;8.202;2023-04-23T17:56:00;2.85;;;2.40;;
41059;SDS011;26811;53.160;8.202;2023-04-23T18:01:02;3.20;;;2.50;;
41059;SDS011;26811;53.160;8.202;2023-04-23T18:06:02;3.17;;;2.10;;
41059;SDS011;26811;53.160;8.202;2023-04-23T18:11:03;5.20;;;2.42;;
41059;SDS011;26811;53.160;8.202;2023-04-23T18:16:06;2.65;;;2.38;;
41059;SDS011;26811;53.160;8.202;2023-04-23T18:21:07;3.70;;;2.70;;
41059;SDS011;26811;53.160;8.202;2023-04-23T18:26:08;3.63;;;2.70;;
41059;SDS011;26811;53.160;8.202;2023-04-23T18:31:08;3.60;;;3.13;;
41059;SDS011;26811;53.160;8.202;2023-04-23T18:36:18;4.55;;;3.33;;
41059;SDS011;26811;53.160;8.202;2023-04-23T18:41:38;5.25;;;3.17;;
41059;SDS011;26811;53.160;8.202;2023-04-23T18:46:39;3.75;;;3.20;;
41059;SDS011;26811;53.160;8.202;2023-04-23T18:51:43;6.45;;;3.50;;
41059;SDS011;26811;53.160;8.202;2023-04-23T18:56:51;3.88;;;3.45;;
41059;SDS011;26811;53.160;8.202;2023-04-23T19:01:53;5.25;;;3.63;;
41059;SDS011;26811;53.160;8.202;2023-04-23T19:06:55;5.72;;;3.55;;
41059;SDS011;26811;53.160;8.202;2023-04-23T19:11:56;3.95;;;3.33;;
41059;SDS011;26811;53.160;8.202;2023-04-23T19:16:56;3.85;;;3.40;;
41059;SDS011;26811;53.160;8.202;2023-04-23T19:21:57;4.60;;;3.35;;
41059;SDS011;26811;53.160;8.202;2023-04-23T19:26:57;3.83;;;3.25;;
41059;SDS011;26811;53.160;8.202;2023-04-23T19:31:58;2.95;;;2.70;;
41059;SDS011;26811;53.160;8.202;2023-04-23T19:36:58;3.10;;;2.85;;
41059;SDS011;26811;53.160;8.202;2023-04-23T19:41:59;7.47;;;2.72;;
41059;SDS011;26811;53.160;8.202;2023-04-23T19:47:01;3.65;;;3.15;;
41059;SDS011;26811;53.160;8.202;2023-04-23T19:52:02;3.42;;;2.88;;
41059;SDS011;26811;53.160;8.202;2023-04-23T19:57:03;6.43;;;3.75;;
41059;SDS011;26811;53.160;8.202;2023-04-23T20:02:07;4.55;;;3.45;;
41059;SDS011;26811;53.160;8.202;2023-04-23T20:07:08;3.60;;;3.30;;
41059;SDS011;26811;53.160;8.202;2023-04-23T20:12:08;3.78;;;3.47;;
41059;SDS011;26811;53.160;8.202;2023-04-23T20:17:09;3.80;;;3.50;;
41059;SDS011;26811;53.160;8.202;2023-04-23T20:22:10;6.25;;;3.67;;
41059;SDS011;26811;53.160;8.202;2023-04-23T20:27:11;5.57;;;3.92;;
41059;SDS011;26811;53.160;8.202;2023-04-23T20:32:12;4.75;;;3.80;;
41059;SDS011;26811;53.160;8.202;2023-04-23T20:37:12;4.13;;;3.72;;
41059;SDS011;26811;53.160;8.202;2023-04-23T20:42:13;5.40;;;3.63;;
41059;SDS011;26811;53.160;8.202;2023-04-23T20:47:14;6.68;;;3.70;;
41059;SDS011;26811;53.160;8.202;2023-04-23T20:52:15;4.55;;;4.15;;
41059;SDS011;26811;53.160;8.202;2023-04-23T20:57:15;6.10;;;3.92;;
41059;SDS011;26811;53.160;8.202;2023-04-23T21:02:16;6.53;;;3.70;;
41059;SDS011;26811;53.160;8.202;2023-04-23T21:07:17;6.50;;;3.95;;
41059;SDS011;26811;53.160;8.202;2023-04-23T21:12:17;5.10;;;4.07;;
41059;SDS011;26811;53.160;8.202;2023-04-23T21:17:18;6.90;;;4.45;;
41059;SDS011;26811;53.160;8.202;2023-04-23T21:22:19;9.05;;;4.45;;
41059;SDS011;26811;53.160;8.202;2023-04-23T21:27:19;7.18;;;4.70;;
41059;SDS011;26811;53.160;8.202;2023-04-23T21:32:20;6.85;;;4.38;;
41059;SDS011;26811;53.160;8.202;2023-04-23T21:37:21;6.57;;;4.72;;
41059;SDS011;26811;53.160;8.202;2023-04-23T21:42:21;6.80;;;5.35;;
41059;SDS011;26811;53.160;8.202;2023-04-23T21:47:22;8.48;;;5.40;;
41059;SDS011;26811;53.160;8.202;2023-04-23T21:52:22;7.60;;;6.07;;
41059;SDS011;26811;53.160;8.202;2023-04-23T21:57:25;9.48;;;6.53;;
41059;SDS011;26811;53.160;8.202;2023-04-23T22:02:25;9.65;;;6.50;;
41059;SDS011;26811;53.160;8.202;2023-04-23T22:07:26;7.97;;;6.65;;
41059;SDS011;26811;53.160;8.202;2023-04-23T22:12:28;9.25;;;6.40;;
41059;SDS011;26811;53.160;8.202;2023-04-23T22:17:28;9.00;;;6.57;;
41059;SDS011;26811;53.160;8.202;2023-04-23T22:22:29;10.07;;;6.78;;
41059;SDS011;26811;53.160;8.202;2023-04-23T22:27:30;8.50;;;7.07;;
41059;SDS011;26811;53.160;8.202;2023-04-23T22:32:34;9.93;;;7.65;;
41059;SDS011;26811;53.160;8.202;2023-04-23T22:37:36;10.27;;;7.50;;
41059;SDS011;26811;53.160;8.202;2023-04-23T22:42:37;13.98;;;8.30;;
41059;SDS011;26811;53.160;8.202;2023-04-23T22:47:38;12.52;;;8.27;;
41059;SDS011;26811;53.160;8.202;2023-04-23T22:52:38;12.73;;;8.27;;
41059;SDS011;26811;53.160;8.202;2023-04-23T22:57:39;11.10;;;8.10;;
41059;SDS011;26811;53.160;8.202;2023-04-23T23:02:40;12.20;;;8.18;;
41059;SDS011;26811;53.160;8.202;2023-04-23T23:07:40;15.00;;;8.05;;
41059;SDS011;26811;53.160;8.202;2023-04-23T23:12:41;13.73;;;8.43;;
41059;SDS011;26811;53.160;8.202;2023-04-23T23:17:41;14.00;;;8.88;;
41059;SDS011;26811;53.160;8.202;2023-04-23T23:22:42;14.05;;;8.52;;
41059;SDS011;26811;53.160;8.202;2023-04-23T23:27:42;14.40;;;8.40;;
41059;SDS011;26811;53.160;8.202;2023-04-23T23:32:43;12.30;;;7.82;;
41059;SDS011;26811;53.160;8.202;2023-04-23T23:37:44;9.68;;;7.25;;
41059;SDS011;26811;53.160;8.202;2023-04-23T23:42:45;9.95;;;7.32;;
41059;SDS011;26811;53.160;8.202;2023-04-23T23:47:45;11.82;;;7.07;;
41059;SDS011;26811;53.160;8.202;2023-04-23T23:52:46;9.10;;;6.85;;
41059;SDS011;26811;53.160;8.202;2023-04-23T23:57:47;8.73;;;6.45;;
